sensor_id;sensor_type;location;lat;lon;timestamp;pressure;altitude;pressure_sealevel;temperature;humidity
7824;BME280;3957;48.61947800;9.05303100;2023-07-13T00:00:39;96105.69;;;16.65;90.61
7824;BME280;3957;48.61947800;9.05303100;2023-07-13T00:01:41;96108.28;;;16.60;91.06
7824;BME280;3957;48.61947800;9.05303100;2023-07-13T00:02:44;96110.06;;;16.55;91.44
7824;BME280;3957;48.61947800;9.05303100;2023-07-13T00:03:45;96109.97;;;16.49;91.78
7824;BME280;3957;48.61947800;9.05303100;2023-07-13T00:04:47;96112.56;;;16.44;92.27
7824;BME280;3957;48.61947800;9.05303100;2023-07-13T00:05:57;96104.84;;;16.36;93.00
7824;BME280;3957;48.61947800;9.05303100;2023-07-13T00:06:59;96108.53;;;16.30;93.41
7824;BME280;3957;48.61947800;9.05303100;2023-07-13T00:08:00;96104.53;;;16.21;94.09
7824;BME280;3957;48.61947800;9.05303100;2023-07-13T00:09:02;96103.97;;;16.19;94.01
7824;BME280;3957;48.61947800;9.05303100;2023-07-13T00:10:04;96100.94;;;16.15;94.00
7824;BME280;3957;48.61947800;9.05303100;2023-07-13T00:11:06;96096.81;;;16.12;93.26
7824;BME280;3957;48.61947800;9.05303100;2023-07-13T00:12:35;96097.41;;;16.14;93.18
7824;BME280;3957;48.61947800;9.05303100;2023-07-13T00:13:37;96102.56;;;16.16;92.96
7824;BME280;3957;48.61947800;9.05303100;2023-07-13T00:14:40;96100.19;;;16.20;92.55
7824;BME280;3957;48.61947800;9.05303100;2023-07-13T00:15:42;96107.97;;;16.16;93.28
7824;BME280;3957;48.61947800;9.05303100;2023-07-13T00:16:43;96099.75;;;16.11;93.06
7824;BME280;3957;48.61947800;9.05303100;2023-07-13T00:17:45;96098.59;;;16.07;93.14
7824;BME280;3957;48.61947800;9.05303100;2023-07-13T00:18:47;96101.91;;;16.09;92.92
7824;BME280;3957;48.61947800;9.05303100;2023-07-13T00:19:48;96108.09;;;16.09;93.63
7824;BME280;3957;48.61947800;9.05303100;2023-07-13T00:20:50;96105.03;;;16.06;92.96
7824;BME280;3957;48.61947800;9.05303100;2023-07-13T00:21:52;96107.41;;;16.02;92.98
7824;BME280;3957;48.61947800;9.05303100;2023-07-13T00:22:57;96104.97;;;16.01;92.64
7824;BME280;3957;48.61947800;9.05303100;2023-07-13T00:23:59;96103.88;;;16.02;92.87
7824;BME280;3957;48.61947800;9.05303100;2023-07-13T00:25:02;96110.13;;;16.02;92.99
7824;BME280;3957;48.61947800;9.05303100;2023-07-13T00:26:06;96098.41;;;15.96;93.03
7824;BME280;3957;48.61947800;9.05303100;2023-07-13T00:27:08;96098.41;;;15.96;93.62
7824;BME280;3957;48.61947800;9.05303100;2023-07-13T00:28:10;96100.97;;;15.91;93.86
7824;BME280;3957;48.61947800;9.05303100;2023-07-13T00:29:12;96091.47;;;15.89;93.70
7824;BME280;3957;48.61947800;9.05303100;2023-07-13T00:30:14;96102.41;;;15.82;94.32
7824;BME280;3957;48.61947800;9.05303100;2023-07-13T00:31:16;96088.53;;;15.78;94.34
7824;BME280;3957;48.61947800;9.05303100;2023-07-13T00:32:18;96087.94;;;15.76;94.71
7824;BME280;3957;48.61947800;9.05303100;2023-07-13T00:33:21;96092.66;;;15.81;95.38
7824;BME280;3957;48.61947800;9.05303100;2023-07-13T00:34:24;96086.44;;;15.80;94.41
7824;BME280;3957;48.61947800;9.05303100;2023-07-13T00:35:26;96091.25;;;15.78;94.45
7824;BME280;3957;48.61947800;9.05303100;2023-07-13T00:36:27;96097.09;;;15.75;94.18
7824;BME280;3957;48.61947800;9.05303100;2023-07-13T00:37:31;96096.03;;;15.76;94.19
7824;BME280;3957;48.61947800;9.05303100;2023-07-13T00:38:33;96095.91;;;15.71;94.13
7824;BME280;3957;48.61947800;9.05303100;2023-07-13T00:39:35;96097.56;;;15.72;94.11
7824;BME280;3957;48.61947800;9.05303100;2023-07-13T00:40:37;96098.38;;;15.73;93.51
7824;BME280;3957;48.61947800;9.05303100;2023-07-13T00:41:38;96092.78;;;15.74;93.23
7824;BME280;3957;48.61947800;9.05303100;2023-07-13T00:42:40;96103.09;;;15.77;93.10
7824;BME280;3957;48.61947800;9.05303100;2023-07-13T00:43:42;96097.31;;;15.74;93.49
7824;BME280;3957;48.61947800;9.05303100;2023-07-13T00:47:25;96103.81;;;15.85;92.37
7824;BME280;3957;48.61947800;9.05303100;2023-07-13T00:48:29;96100.63;;;15.88;91.95
7824;BME280;3957;48.61947800;9.05303100;2023-07-13T00:49:33;96099.69;;;15.94;93.23
7824;BME280;3957;48.61947800;9.05303100;2023-07-13T00:50:37;96101.53;;;15.93;92.46
7824;BME280;3957;48.61947800;9.05303100;2023-07-13T00:51:53;96097.00;;;15.94;92.15
7824;BME280;3957;48.61947800;9.05303100;2023-07-13T00:52:56;96086.44;;;15.92;92.12
7824;BME280;3957;48.61947800;9.05303100;2023-07-13T00:54:04;96091.84;;;15.92;91.92
7824;BME280;3957;48.61947800;9.05303100;2023-07-13T00:55:07;96089.34;;;15.91;91.65
7824;BME280;3957;48.61947800;9.05303100;2023-07-13T00:56:10;96094.53;;;15.92;92.03
7824;BME280;3957;48.61947800;9.05303100;2023-07-13T00:57:16;96098.84;;;15.93;92.07
7824;BME280;3957;48.61947800;9.05303100;2023-07-13T00:58:19;96094.53;;;15.92;91.99
7824;BME280;3957;48.61947800;9.05303100;2023-07-13T00:59:21;96089.25;;;15.86;92.11
7824;BME280;3957;48.61947800;9.05303100;2023-07-13T01:00:25;96089.25;;;15.86;91.96
7824;BME280;3957;48.61947800;9.05303100;2023-07-13T01:01:28;96091.34;;;15.84;91.86
7824;BME280;3957;48.61947800;9.05303100;2023-07-13T01:02:30;96093.38;;;15.88;91.33
7824;BME280;3957;48.61947800;9.05303100;2023-07-13T01:03:31;96092.28;;;15.89;91.41
7824;BME280;3957;48.61947800;9.05303100;2023-07-13T01:04:33;96091.97;;;15.86;90.88
7824;BME280;3957;48.61947800;9.05303100;2023-07-13T01:05:36;96084.78;;;15.91;90.28
7824;BME280;3957;48.61947800;9.05303100;2023-07-13T01:06:39;96097.44;;;15.91;90.48
7824;BME280;3957;48.61947800;9.05303100;2023-07-13T01:07:43;96101.47;;;15.88;91.08
7824;BME280;3957;48.61947800;9.05303100;2023-07-13T01:08:45;96105.94;;;15.83;91.76
7824;BME280;3957;48.61947800;9.05303100;2023-07-13T01:09:47;96104.84;;;15.84;91.40
7824;BME280;3957;48.61947800;9.05303100;2023-07-13T01:10:55;96102.63;;;15.80;92.25
7824;BME280;3957;48.61947800;9.05303100;2023-07-13T01:11:57;96108.47;;;15.77;92.31
7824;BME280;3957;48.61947800;9.05303100;2023-07-13T01:13:00;96108.13;;;15.74;92.79
7824;BME280;3957;48.61947800;9.05303100;2023-07-13T01:14:03;96106.63;;;15.66;93.26
7824;BME280;3957;48.61947800;9.05303100;2023-07-13T01:15:05;96107.44;;;15.67;93.80
7824;BME280;3957;48.61947800;9.05303100;2023-07-13T01:16:15;96097.94;;;15.64;94.51
7824;BME280;3957;48.61947800;9.05303100;2023-07-13T01:17:20;96103.78;;;15.61;94.56
7824;BME280;3957;48.61947800;9.05303100;2023-07-13T01:18:25;96097.00;;;15.58;94.41
7824;BME280;3957;48.61947800;9.05303100;2023-07-13T01:19:35;96102.38;;;15.58;94.53
7824;BME280;3957;48.61947800;9.05303100;2023-07-13T01:20:39;96108.81;;;15.57;94.42
7824;BME280;3957;48.61947800;9.05303100;2023-07-13T01:21:40;96101.09;;;15.61;95.22
7824;BME280;3957;48.61947800;9.05303100;2023-07-13T01:22:44;96093.00;;;15.61;95.35
7824;BME280;3957;48.61947800;9.05303100;2023-07-13T01:23:45;96100.25;;;15.60;95.10
7824;BME280;3957;48.61947800;9.05303100;2023-07-13T01:24:48;96099.44;;;15.60;94.48
7824;BME280;3957;48.61947800;9.05303100;2023-07-13T01:25:51;96093.38;;;15.53;94.45
7824;BME280;3957;48.61947800;9.05303100;2023-07-13T01:26:53;96096.78;;;15.48;94.87
7824;BME280;3957;48.61947800;9.05303100;2023-07-13T01:27:54;96089.97;;;15.45;95.01
7824;BME280;3957;48.61947800;9.05303100;2023-07-13T01:28:56;96100.63;;;15.40;95.45
7824;BME280;3957;48.61947800;9.05303100;2023-07-13T01:29:58;96101.34;;;15.36;95.98
7824;BME280;3957;48.61947800;9.05303100;2023-07-13T01:31:09;96099.81;;;15.28;96.17
7824;BME280;3957;48.61947800;9.05303100;2023-07-13T01:32:20;96100.72;;;15.22;96.81
7824;BME280;3957;48.61947800;9.05303100;2023-07-13T01:33:29;96102.47;;;15.16;97.07
7824;BME280;3957;48.61947800;9.05303100;2023-07-13T01:34:31;96102.13;;;15.12;98.00
7824;BME280;3957;48.61947800;9.05303100;2023-07-13T01:35:33;96098.84;;;15.10;98.30
7824;BME280;3957;48.61947800;9.05303100;2023-07-13T01:36:35;96099.78;;;15.04;98.62
7824;BME280;3957;48.61947800;9.05303100;2023-07-13T01:37:37;96104.56;;;15.02;99.31
7824;BME280;3957;48.61947800;9.05303100;2023-07-13T01:38:39;96103.63;;;14.96;99.73
7824;BME280;3957;48.61947800;9.05303100;2023-07-13T01:39:44;96103.50;;;15.03;100.00
7824;BME280;3957;48.61947800;9.05303100;2023-07-13T01:40:45;96117.09;;;14.96;100.00
7824;BME280;3957;48.61947800;9.05303100;2023-07-13T01:41:47;96115.56;;;14.89;100.00
7824;BME280;3957;48.61947800;9.05303100;2023-07-13T01:42:49;96107.81;;;14.81;100.00
7824;BME280;3957;48.61947800;9.05303100;2023-07-13T01:43:53;96113.06;;;14.75;100.00
7824;BME280;3957;48.61947800;9.05303100;2023-07-13T01:44:55;96114.56;;;14.71;100.00
7824;BME280;3957;48.61947800;9.05303100;2023-07-13T01:45:56;96110.69;;;14.67;100.00
7824;BME280;3957;48.61947800;9.05303100;2023-07-13T01:47:18;96116.13;;;14.60;100.00
7824;BME280;3957;48.61947800;9.05303100;2023-07-13T01:48:20;96113.28;;;14.55;100.00
7824;BME280;3957;48.61947800;9.05303100;2023-07-13T01:49:22;96112.94;;;14.52;100.00
7824;BME280;3957;48.61947800;9.05303100;2023-07-13T01:50:25;96117.16;;;14.48;100.00
7824;BME280;3957;48.61947800;9.05303100;2023-07-13T01:51:27;96110.91;;;14.47;100.00
7824;BME280;3957;48.61947800;9.05303100;2023-07-13T01:52:28;96115.03;;;14.50;100.00
7824;BME280;3957;48.61947800;9.05303100;2023-07-13T01:53:32;96116.78;;;14.44;100.00
7824;BME280;3957;48.61947800;9.05303100;2023-07-13T01:54:35;96114.16;;;14.37;100.00
7824;BME280;3957;48.61947800;9.05303100;2023-07-13T01:55:37;96116.28;;;14.35;100.00
7824;BME280;3957;48.61947800;9.05303100;2023-07-13T01:56:42;96120.22;;;14.33;100.00
7824;BME280;3957;48.61947800;9.05303100;2023-07-13T01:57:43;96128.31;;;14.33;100.00
7824;BME280;3957;48.61947800;9.05303100;2023-07-13T01:58:46;96120.69;;;14.29;100.00
7824;BME280;3957;48.61947800;9.05303100;2023-07-13T01:59:47;96114.94;;;14.26;100.00
7824;BME280;3957;48.61947800;9.05303100;2023-07-13T02:00:49;96119.13;;;14.22;100.00
7824;BME280;3957;48.61947800;9.05303100;2023-07-13T02:01:51;96118.16;;;14.16;100.00
7824;BME280;3957;48.61947800;9.05303100;2023-07-13T02:02:54;96113.59;;;14.17;100.00
7824;BME280;3957;48.61947800;9.05303100;2023-07-13T02:03:56;96114.03;;;14.14;100.00
7824;BME280;3957;48.61947800;9.05303100;2023-07-13T02:04:58;96111.00;;;14.10;100.00
7824;BME280;3957;48.61947800;9.05303100;2023-07-13T02:05:59;96115.78;;;14.08;100.00
7824;BME280;3957;48.61947800;9.05303100;2023-07-13T02:07:01;96114.72;;;14.09;100.00
7824;BME280;3957;48.61947800;9.05303100;2023-07-13T02:08:03;96113.88;;;14.08;100.00
7824;BME280;3957;48.61947800;9.05303100;2023-07-13T02:09:05;96116.81;;;14.07;100.00
7824;BME280;3957;48.61947800;9.05303100;2023-07-13T02:10:07;96109.19;;;14.04;100.00
7824;BME280;3957;48.61947800;9.05303100;2023-07-13T02:11:10;96120.63;;;13.99;100.00
7824;BME280;3957;48.61947800;9.05303100;2023-07-13T02:12:12;96124.75;;;14.02;100.00
7824;BME280;3957;48.61947800;9.05303100;2023-07-13T02:13:13;96116.69;;;14.02;100.00
7824;BME280;3957;48.61947800;9.05303100;2023-07-13T02:14:15;96124.59;;;13.97;100.00
7824;BME280;3957;48.61947800;9.05303100;2023-07-13T02:15:17;96121.91;;;13.97;100.00
7824;BME280;3957;48.61947800;9.05303100;2023-07-13T02:16:19;96128.56;;;13.94;100.00
7824;BME280;3957;48.61947800;9.05303100;2023-07-13T02:17:21;96117.78;;;13.94;100.00
7824;BME280;3957;48.61947800;9.05303100;2023-07-13T02:18:23;96127.13;;;13.91;100.00
7824;BME280;3957;48.61947800;9.05303100;2023-07-13T02:19:24;96121.16;;;13.89;100.00
7824;BME280;3957;48.61947800;9.05303100;2023-07-13T02:20:26;96133.41;;;13.85;100.00
7824;BME280;3957;48.61947800;9.05303100;2023-07-13T02:21:28;96120.19;;;13.84;100.00
7824;BME280;3957;48.61947800;9.05303100;2023-07-13T02:22:30;96130.56;;;13.80;100.00
7824;BME280;3957;48.61947800;9.05303100;2023-07-13T02:23:32;96128.69;;;13.81;100.00
7824;BME280;3957;48.61947800;9.05303100;2023-07-13T02:24:33;96130.19;;;13.76;100.00
7824;BME280;3957;48.61947800;9.05303100;2023-07-13T02:25:35;96133.09;;;13.75;100.00
7824;BME280;3957;48.61947800;9.05303100;2023-07-13T02:26:36;96131.72;;;13.66;100.00
7824;BME280;3957;48.61947800;9.05303100;2023-07-13T02:27:38;96124.56;;;13.59;100.00
7824;BME280;3957;48.61947800;9.05303100;2023-07-13T02:28:40;96122.09;;;13.58;100.00
7824;BME280;3957;48.61947800;9.05303100;2023-07-13T02:29:42;96118.22;;;13.54;100.00
7824;BME280;3957;48.61947800;9.05303100;2023-07-13T02:30:43;96120.72;;;13.49;100.00
7824;BME280;3957;48.61947800;9.05303100;2023-07-13T02:31:45;96119.09;;;13.48;100.00
7824;BME280;3957;48.61947800;9.05303100;2023-07-13T02:32:46;96122.84;;;13.47;100.00
7824;BME280;3957;48.61947800;9.05303100;2023-07-13T02:33:48;96125.94;;;13.43;100.00
7824;BME280;3957;48.61947800;9.05303100;2023-07-13T02:34:51;96118.56;;;13.39;100.00
7824;BME280;3957;48.61947800;9.05303100;2023-07-13T02:35:54;96129.09;;;13.34;100.00
7824;BME280;3957;48.61947800;9.05303100;2023-07-13T02:36:56;96121.25;;;13.32;100.00
7824;BME280;3957;48.61947800;9.05303100;2023-07-13T02:37:58;96132.25;;;13.31;100.00
7824;BME280;3957;48.61947800;9.05303100;2023-07-13T02:39:04;96128.56;;;13.25;100.00
7824;BME280;3957;48.61947800;9.05303100;2023-07-13T02:40:10;96129.00;;;13.22;100.00
7824;BME280;3957;48.61947800;9.05303100;2023-07-13T02:41:12;96134.00;;;13.18;100.00
7824;BME280;3957;48.61947800;9.05303100;2023-07-13T02:42:14;96137.72;;;13.17;100.00
7824;BME280;3957;48.61947800;9.05303100;2023-07-13T02:43:16;96136.47;;;13.20;100.00
7824;BME280;3957;48.61947800;9.05303100;2023-07-13T02:44:18;96131.09;;;13.20;100.00
7824;BME280;3957;48.61947800;9.05303100;2023-07-13T02:45:20;96130.84;;;13.21;100.00
7824;BME280;3957;48.61947800;9.05303100;2023-07-13T02:46:21;96139.75;;;13.22;100.00
7824;BME280;3957;48.61947800;9.05303100;2023-07-13T02:47:23;96131.31;;;13.18;100.00
7824;BME280;3957;48.61947800;9.05303100;2023-07-13T02:48:26;96131.75;;;13.15;100.00
7824;BME280;3957;48.61947800;9.05303100;2023-07-13T02:49:28;96130.75;;;13.09;100.00
7824;BME280;3957;48.61947800;9.05303100;2023-07-13T02:50:30;96131.78;;;13.08;100.00
7824;BME280;3957;48.61947800;9.05303100;2023-07-13T02:51:32;96129.13;;;13.08;100.00
7824;BME280;3957;48.61947800;9.05303100;2023-07-13T02:52:35;96135.28;;;13.09;100.00
7824;BME280;3957;48.61947800;9.05303100;2023-07-13T02:53:37;96134.69;;;13.07;100.00
7824;BME280;3957;48.61947800;9.05303100;2023-07-13T02:54:39;96130.38;;;13.06;100.00
7824;BME280;3957;48.61947800;9.05303100;2023-07-13T02:55:41;96128.34;;;13.01;100.00
7824;BME280;3957;48.61947800;9.05303100;2023-07-13T02:56:48;96130.00;;;13.02;100.00
7824;BME280;3957;48.61947800;9.05303100;2023-07-13T02:57:51;96128.13;;;13.03;100.00
7824;BME280;3957;48.61947800;9.05303100;2023-07-13T02:58:55;96132.47;;;13.04;100.00
7824;BME280;3957;48.61947800;9.05303100;2023-07-13T02:59:56;96131.41;;;13.05;100.00
7824;BME280;3957;48.61947800;9.05303100;2023-07-13T03:00:58;96125.00;;;13.06;100.00
7824;BME280;3957;48.61947800;9.05303100;2023-07-13T03:02:01;96127.47;;;13.07;100.00
7824;BME280;3957;48.61947800;9.05303100;2023-07-13T03:03:03;96131.97;;;13.14;100.00
7824;BME280;3957;48.61947800;9.05303100;2023-07-13T03:04:05;96125.56;;;13.15;100.00
7824;BME280;3957;48.61947800;9.05303100;2023-07-13T03:05:09;96125.94;;;13.18;100.00
7824;BME280;3957;48.61947800;9.05303100;2023-07-13T03:06:16;96127.94;;;13.23;100.00
7824;BME280;3957;48.61947800;9.05303100;2023-07-13T03:07:23;96123.41;;;13.23;100.00
7824;BME280;3957;48.61947800;9.05303100;2023-07-13T03:08:25;96126.09;;;13.23;100.00
7824;BME280;3957;48.61947800;9.05303100;2023-07-13T03:09:28;96127.13;;;13.22;100.00
7824;BME280;3957;48.61947800;9.05303100;2023-07-13T03:10:30;96131.03;;;13.26;100.00
7824;BME280;3957;48.61947800;9.05303100;2023-07-13T03:11:31;96129.31;;;13.32;100.00
7824;BME280;3957;48.61947800;9.05303100;2023-07-13T03:12:40;96128.50;;;13.38;100.00
7824;BME280;3957;48.61947800;9.05303100;2023-07-13T03:13:51;96130.72;;;13.41;100.00
7824;BME280;3957;48.61947800;9.05303100;2023-07-13T03:14:54;96125.31;;;13.48;100.00
7824;BME280;3957;48.61947800;9.05303100;2023-07-13T03:15:56;96132.91;;;13.51;100.00
7824;BME280;3957;48.61947800;9.05303100;2023-07-13T03:16:58;96128.06;;;13.60;100.00
7824;BME280;3957;48.61947800;9.05303100;2023-07-13T03:18:04;96127.66;;;13.63;100.00
7824;BME280;3957;48.61947800;9.05303100;2023-07-13T03:19:06;96135.84;;;13.68;100.00
7824;BME280;3957;48.61947800;9.05303100;2023-07-13T03:20:08;96132.56;;;13.66;100.00
7824;BME280;3957;48.61947800;9.05303100;2023-07-13T03:21:10;96137.78;;;13.61;100.00
7824;BME280;3957;48.61947800;9.05303100;2023-07-13T03:22:13;96130.16;;;13.58;100.00
7824;BME280;3957;48.61947800;9.05303100;2023-07-13T03:23:16;96135.31;;;13.59;100.00
7824;BME280;3957;48.61947800;9.05303100;2023-07-13T03:24:18;96135.31;;;13.59;100.00
7824;BME280;3957;48.61947800;9.05303100;2023-07-13T03:25:19;96136.00;;;13.55;100.00
7824;BME280;3957;48.61947800;9.05303100;2023-07-13T03:26:22;96139.50;;;13.55;100.00
7824;BME280;3957;48.61947800;9.05303100;2023-07-13T03:27:24;96140.75;;;13.53;100.00
7824;BME280;3957;48.61947800;9.05303100;2023-07-13T03:28:26;96143.22;;;13.54;100.00
7824;BME280;3957;48.61947800;9.05303100;2023-07-13T03:29:28;96141.16;;;13.56;100.00
7824;BME280;3957;48.61947800;9.05303100;2023-07-13T03:30:29;96149.56;;;13.60;100.00
7824;BME280;3957;48.61947800;9.05303100;2023-07-13T03:31:34;96151.00;;;13.63;100.00
7824;BME280;3957;48.61947800;9.05303100;2023-07-13T03:32:36;96151.63;;;13.65;100.00
7824;BME280;3957;48.61947800;9.05303100;2023-07-13T03:33:38;96147.66;;;13.67;100.00
7824;BME280;3957;48.61947800;9.05303100;2023-07-13T03:34:40;96149.91;;;13.70;100.00
7824;BME280;3957;48.61947800;9.05303100;2023-07-13T03:35:42;96146.78;;;13.73;100.00
7824;BME280;3957;48.61947800;9.05303100;2023-07-13T03:36:44;96147.56;;;13.74;100.00
7824;BME280;3957;48.61947800;9.05303100;2023-07-13T03:37:47;96149.63;;;13.78;100.00
7824;BME280;3957;48.61947800;9.05303100;2023-07-13T03:38:56;96148.59;;;13.80;100.00
7824;BME280;3957;48.61947800;9.05303100;2023-07-13T03:40:01;96157.63;;;13.85;100.00
7824;BME280;3957;48.61947800;9.05303100;2023-07-13T03:41:05;96146.47;;;13.82;100.00
7824;BME280;3957;48.61947800;9.05303100;2023-07-13T03:42:07;96149.97;;;13.82;100.00
7824;BME280;3957;48.61947800;9.05303100;2023-07-13T03:43:08;96148.94;;;13.83;100.00
7824;BME280;3957;48.61947800;9.05303100;2023-07-13T03:44:10;96145.22;;;13.84;100.00
7824;BME280;3957;48.61947800;9.05303100;2023-07-13T03:45:12;96144.19;;;13.85;100.00
7824;BME280;3957;48.61947800;9.05303100;2023-07-13T03:46:15;96145.81;;;13.86;100.00
7824;BME280;3957;48.61947800;9.05303100;2023-07-13T03:47:18;96150.13;;;13.87;100.00
7824;BME280;3957;48.61947800;9.05303100;2023-07-13T03:48:20;96150.94;;;13.88;100.00
7824;BME280;3957;48.61947800;9.05303100;2023-07-13T03:49:22;96146.19;;;13.90;100.00
7824;BME280;3957;48.61947800;9.05303100;2023-07-13T03:50:24;96153.00;;;13.92;100.00
7824;BME280;3957;48.61947800;9.05303100;2023-07-13T03:51:25;96151.97;;;13.93;100.00
7824;BME280;3957;48.61947800;9.05303100;2023-07-13T03:52:27;96150.66;;;13.96;100.00
7824;BME280;3957;48.61947800;9.05303100;2023-07-13T03:53:29;96153.97;;;13.98;100.00
7824;BME280;3957;48.61947800;9.05303100;2023-07-13T03:54:30;96155.00;;;13.97;100.00
7824;BME280;3957;48.61947800;9.05303100;2023-07-13T03:55:34;96153.50;;;14.01;100.00
7824;BME280;3957;48.61947800;9.05303100;2023-07-13T03:56:36;96158.09;;;14.01;100.00
7824;BME280;3957;48.61947800;9.05303100;2023-07-13T03:57:40;96159.13;;;14.00;100.00
7824;BME280;3957;48.61947800;9.05303100;2023-07-13T03:58:47;96159.78;;;13.95;100.00
7824;BME280;3957;48.61947800;9.05303100;2023-07-13T03:59:54;96164.34;;;13.94;100.00
7824;BME280;3957;48.61947800;9.05303100;2023-07-13T04:00:57;96173.03;;;13.97;100.00
7824;BME280;3957;48.61947800;9.05303100;2023-07-13T04:01:59;96166.38;;;13.99;100.00
7824;BME280;3957;48.61947800;9.05303100;2023-07-13T04:03:00;96167.41;;;13.98;100.00
7824;BME280;3957;48.61947800;9.05303100;2023-07-13T04:04:05;96170.28;;;14.03;100.00
7824;BME280;3957;48.61947800;9.05303100;2023-07-13T04:05:07;96168.38;;;14.04;100.00
7824;BME280;3957;48.61947800;9.05303100;2023-07-13T04:06:15;96170.78;;;14.12;100.00
7824;BME280;3957;48.61947800;9.05303100;2023-07-13T04:07:22;96172.38;;;14.20;100.00
7824;BME280;3957;48.61947800;9.05303100;2023-07-13T04:08:24;96172.13;;;14.21;100.00
7824;BME280;3957;48.61947800;9.05303100;2023-07-13T04:09:26;96171.91;;;14.23;100.00
7824;BME280;3957;48.61947800;9.05303100;2023-07-13T04:10:27;96173.09;;;14.27;100.00
7824;BME280;3957;48.61947800;9.05303100;2023-07-13T04:11:31;96179.44;;;14.33;100.00
7824;BME280;3957;48.61947800;9.05303100;2023-07-13T04:12:34;96176.06;;;14.37;100.00
7824;BME280;3957;48.61947800;9.05303100;2023-07-13T04:13:35;96178.09;;;14.42;100.00
7824;BME280;3957;48.61947800;9.05303100;2023-07-13T04:14:37;96181.38;;;14.44;100.00
7824;BME280;3957;48.61947800;9.05303100;2023-07-13T04:15:39;96181.53;;;14.49;100.00
7824;BME280;3957;48.61947800;9.05303100;2023-07-13T04:16:41;96179.81;;;14.55;100.00
7824;BME280;3957;48.61947800;9.05303100;2023-07-13T04:17:42;96178.06;;;14.60;100.00
7824;BME280;3957;48.61947800;9.05303100;2023-07-13T04:18:45;96184.25;;;14.61;100.00
7824;BME280;3957;48.61947800;9.05303100;2023-07-13T04:19:47;96185.09;;;14.61;100.00
7824;BME280;3957;48.61947800;9.05303100;2023-07-13T04:20:50;96185.78;;;14.57;100.00
7824;BME280;3957;48.61947800;9.05303100;2023-07-13T04:21:52;96187.41;;;14.58;100.00
7824;BME280;3957;48.61947800;9.05303100;2023-07-13T04:22:53;96183.69;;;14.59;100.00
7824;BME280;3957;48.61947800;9.05303100;2023-07-13T04:23:55;96179.53;;;14.63;100.00
7824;BME280;3957;48.61947800;9.05303100;2023-07-13T04:24:56;96179.66;;;14.68;100.00
7824;BME280;3957;48.61947800;9.05303100;2023-07-13T04:25:58;96180.25;;;14.70;100.00
7824;BME280;3957;48.61947800;9.05303100;2023-07-13T04:27:00;96173.59;;;14.73;100.00
7824;BME280;3957;48.61947800;9.05303100;2023-07-13T04:28:03;96182.84;;;14.77;100.00
7824;BME280;3957;48.61947800;9.05303100;2023-07-13T04:29:06;96179.47;;;14.82;100.00
7824;BME280;3957;48.61947800;9.05303100;2023-07-13T04:30:08;96180.09;;;14.84;100.00
7824;BME280;3957;48.61947800;9.05303100;2023-07-13T04:31:10;96179.84;;;14.85;100.00
7824;BME280;3957;48.61947800;9.05303100;2023-07-13T04:32:11;96179.63;;;14.87;100.00
7824;BME280;3957;48.61947800;9.05303100;2023-07-13T04:33:13;96180.22;;;14.89;100.00
7824;BME280;3957;48.61947800;9.05303100;2023-07-13T04:34:15;96173.75;;;14.90;100.00
7824;BME280;3957;48.61947800;9.05303100;2023-07-13T04:35:16;96185.16;;;14.92;100.00
7824;BME280;3957;48.61947800;9.05303100;2023-07-13T04:36:18;96181.63;;;14.91;100.00
7824;BME280;3957;48.61947800;9.05303100;2023-07-13T04:37:20;96183.03;;;14.94;100.00
7824;BME280;3957;48.61947800;9.05303100;2023-07-13T04:38:27;96183.88;;;14.94;100.00
7824;BME280;3957;48.61947800;9.05303100;2023-07-13T04:39:29;96185.50;;;14.95;100.00
7824;BME280;3957;48.61947800;9.05303100;2023-07-13T04:40:31;96185.28;;;14.97;100.00
7824;BME280;3957;48.61947800;9.05303100;2023-07-13T04:41:32;96186.09;;;14.98;100.00
7824;BME280;3957;48.61947800;9.05303100;2023-07-13T04:42:34;96189.38;;;15.00;100.00
7824;BME280;3957;48.61947800;9.05303100;2023-07-13T04:43:36;96190.22;;;15.00;100.00
7824;BME280;3957;48.61947800;9.05303100;2023-07-13T04:44:37;96187.06;;;15.03;100.00
7824;BME280;3957;48.61947800;9.05303100;2023-07-13T04:45:39;96188.25;;;15.07;100.00
7824;BME280;3957;48.61947800;9.05303100;2023-07-13T04:46:40;96191.53;;;15.09;100.00
7824;BME280;3957;48.61947800;9.05303100;2023-07-13T04:47:42;96186.50;;;15.13;100.00
7824;BME280;3957;48.61947800;9.05303100;2023-07-13T04:48:44;96193.06;;;15.17;100.00
7824;BME280;3957;48.61947800;9.05303100;2023-07-13T04:49:46;96189.09;;;15.20;100.00
7824;BME280;3957;48.61947800;9.05303100;2023-07-13T04:50:54;96192.84;;;15.19;100.00
7824;BME280;3957;48.61947800;9.05303100;2023-07-13T04:51:56;96191.56;;;15.21;100.00
7824;BME280;3957;48.61947800;9.05303100;2023-07-13T04:52:58;96194.50;;;15.20;100.00
7824;BME280;3957;48.61947800;9.05303100;2023-07-13T04:54:00;96196.13;;;15.21;100.00
7824;BME280;3957;48.61947800;9.05303100;2023-07-13T04:55:02;96198.47;;;15.17;100.00
7824;BME280;3957;48.61947800;9.05303100;2023-07-13T04:56:04;96191.31;;;15.11;100.00
7824;BME280;3957;48.61947800;9.05303100;2023-07-13T04:57:06;96193.41;;;15.09;100.00
7824;BME280;3957;48.61947800;9.05303100;2023-07-13T04:58:07;96191.53;;;15.09;100.00
7824;BME280;3957;48.61947800;9.05303100;2023-07-13T04:59:09;96193.41;;;15.09;100.00
7824;BME280;3957;48.61947800;9.05303100;2023-07-13T05:00:11;96188.63;;;15.11;100.00
7824;BME280;3957;48.61947800;9.05303100;2023-07-13T05:01:13;96187.69;;;15.17;100.00